sensor_id;sensor_type;location;lat;lon;timestamp;P1;durP1;ratioP1;P2;durP2;ratioP2
12681;SDS011;6405;59.208;18.216;2022-09-30T00:00:22;3.33;;;2.83;;
12681;SDS011;6405;59.208;18.216;2022-09-30T00:02:48;4.13;;;2.20;;
12681;SDS011;6405;59.208;18.216;2022-09-30T00:05:16;5.33;;;2.27;;
12681;SDS011;6405;59.208;18.216;2022-09-30T00:07:43;2.60;;;2.33;;
12681;SDS011;6405;59.208;18.216;2022-09-30T00:10:11;4.43;;;2.93;;
12681;SDS011;6405;59.208;18.216;2022-09-30T00:12:39;2.80;;;2.37;;
12681;SDS011;6405;59.208;18.216;2022-09-30T00:15:07;3.83;;;2.30;;
12681;SDS011;6405;59.208;18.216;2022-09-30T00:17:34;3.40;;;2.50;;
12681;SDS011;6405;59.208;18.216;2022-09-30T00:20:00;4.57;;;2.47;;
12681;SDS011;6405;59.208;18.216;2022-09-30T00:22:27;5.40;;;2.63;;
12681;SDS011;6405;59.208;18.216;2022-09-30T00:24:53;4.27;;;2.60;;
12681;SDS011;6405;59.208;18.216;2022-09-30T00:27:20;3.63;;;2.57;;
12681;SDS011;6405;59.208;18.216;2022-09-30T00:29:46;5.40;;;2.53;;
12681;SDS011;6405;59.208;18.216;2022-09-30T00:32:12;4.10;;;2.60;;
12681;SDS011;6405;59.208;18.216;2022-09-30T00:34:39;3.93;;;2.57;;
12681;SDS011;6405;59.208;18.216;2022-09-30T00:37:04;2.97;;;2.23;;
12681;SDS011;6405;59.208;18.216;2022-09-30T00:39:32;3.10;;;2.13;;
12681;SDS011;6405;59.208;18.216;2022-09-30T00:42:03;3.83;;;2.40;;
12681;SDS011;6405;59.208;18.216;2022-09-30T00:44:52;3.03;;;2.03;;
12681;SDS011;6405;59.208;18.216;2022-09-30T00:52:42;4.50;;;2.07;;
12681;SDS011;6405;59.208;18.216;2022-09-30T00:55:19;3.13;;;2.30;;
12681;SDS011;6405;59.208;18.216;2022-09-30T00:57:50;3.47;;;2.30;;
12681;SDS011;6405;59.208;18.216;2022-09-30T01:00:16;3.10;;;2.30;;
12681;SDS011;6405;59.208;18.216;2022-09-30T01:02:44;6.63;;;2.30;;
12681;SDS011;6405;59.208;18.216;2022-09-30T01:05:12;2.97;;;2.30;;
12681;SDS011;6405;59.208;18.216;2022-09-30T01:07:39;4.47;;;2.73;;
12681;SDS011;6405;59.208;18.216;2022-09-30T01:10:07;3.17;;;2.10;;
12681;SDS011;6405;59.208;18.216;2022-09-30T01:12:34;2.37;;;2.13;;
12681;SDS011;6405;59.208;18.216;2022-09-30T01:15:01;3.17;;;2.53;;
12681;SDS011;6405;59.208;18.216;2022-09-30T01:17:36;3.50;;;1.90;;
12681;SDS011;6405;59.208;18.216;2022-09-30T01:23:21;2.30;;;2.10;;
12681;SDS011;6405;59.208;18.216;2022-09-30T01:26:11;4.77;;;2.33;;
12681;SDS011;6405;59.208;18.216;2022-09-30T01:29:06;2.80;;;2.30;;
12681;SDS011;6405;59.208;18.216;2022-09-30T01:31:48;2.50;;;2.20;;
12681;SDS011;6405;59.208;18.216;2022-09-30T01:45:39;3.70;;;2.03;;
12681;SDS011;6405;59.208;18.216;2022-09-30T01:48:22;3.80;;;2.10;;
12681;SDS011;6405;59.208;18.216;2022-09-30T01:56:40;3.47;;;2.23;;
12681;SDS011;6405;59.208;18.216;2022-09-30T01:59:20;3.03;;;2.23;;
12681;SDS011;6405;59.208;18.216;2022-09-30T02:01:56;3.27;;;2.33;;
12681;SDS011;6405;59.208;18.216;2022-09-30T02:04:28;2.83;;;2.20;;
12681;SDS011;6405;59.208;18.216;2022-09-30T02:07:00;3.67;;;2.27;;
12681;SDS011;6405;59.208;18.216;2022-09-30T02:09:35;3.77;;;2.10;;
12681;SDS011;6405;59.208;18.216;2022-09-30T02:12:06;4.30;;;1.97;;
12681;SDS011;6405;59.208;18.216;2022-09-30T02:14:39;4.00;;;2.27;;
12681;SDS011;6405;59.208;18.216;2022-09-30T02:17:15;3.30;;;2.23;;
12681;SDS011;6405;59.208;18.216;2022-09-30T02:19:52;2.97;;;2.20;;
12681;SDS011;6405;59.208;18.216;2022-09-30T02:22:27;4.87;;;2.33;;
12681;SDS011;6405;59.208;18.216;2022-09-30T02:25:11;3.07;;;2.07;;
12681;SDS011;6405;59.208;18.216;2022-09-30T02:27:46;3.47;;;2.10;;
12681;SDS011;6405;59.208;18.216;2022-09-30T02:30:16;6.53;;;2.43;;
12681;SDS011;6405;59.208;18.216;2022-09-30T02:32:45;3.20;;;2.30;;
12681;SDS011;6405;59.208;18.216;2022-09-30T02:35:21;3.67;;;1.93;;
12681;SDS011;6405;59.208;18.216;2022-09-30T02:37:53;4.20;;;2.43;;
12681;SDS011;6405;59.208;18.216;2022-09-30T02:40:29;2.40;;;1.73;;
12681;SDS011;6405;59.208;18.216;2022-09-30T02:43:12;2.50;;;2.17;;
12681;SDS011;6405;59.208;18.216;2022-09-30T02:45:50;2.53;;;2.10;;
12681;SDS011;6405;59.208;18.216;2022-09-30T02:51:17;3.77;;;1.93;;
12681;SDS011;6405;59.208;18.216;2022-09-30T02:54:02;3.43;;;2.60;;
12681;SDS011;6405;59.208;18.216;2022-09-30T02:59:40;2.83;;;2.10;;
12681;SDS011;6405;59.208;18.216;2022-09-30T03:02:06;3.17;;;2.50;;
12681;SDS011;6405;59.208;18.216;2022-09-30T03:04:32;3.20;;;1.90;;
12681;SDS011;6405;59.208;18.216;2022-09-30T03:07:00;2.43;;;2.10;;
12681;SDS011;6405;59.208;18.216;2022-09-30T03:09:27;2.90;;;2.03;;
12681;SDS011;6405;59.208;18.216;2022-09-30T03:11:54;2.17;;;1.87;;
12681;SDS011;6405;59.208;18.216;2022-09-30T03:17:36;2.10;;;1.90;;
12681;SDS011;6405;59.208;18.216;2022-09-30T03:36:33;2.33;;;2.03;;
12681;SDS011;6405;59.208;18.216;2022-09-30T03:39:21;1.67;;;1.43;;
12681;SDS011;6405;59.208;18.216;2022-09-30T03:42:13;1.90;;;1.80;;
12681;SDS011;6405;59.208;18.216;2022-09-30T03:44:55;2.03;;;1.77;;
12681;SDS011;6405;59.208;18.216;2022-09-30T03:47:28;4.37;;;2.00;;
12681;SDS011;6405;59.208;18.216;2022-09-30T03:49:59;4.07;;;2.00;;
12681;SDS011;6405;59.208;18.216;2022-09-30T03:52:28;2.90;;;2.23;;
12681;SDS011;6405;59.208;18.216;2022-09-30T03:54:57;6.17;;;2.23;;
12681;SDS011;6405;59.208;18.216;2022-09-30T03:57:26;2.33;;;2.03;;
12681;SDS011;6405;59.208;18.216;2022-09-30T03:59:57;5.87;;;2.33;;
12681;SDS011;6405;59.208;18.216;2022-09-30T04:02:24;1.63;;;1.50;;
12681;SDS011;6405;59.208;18.216;2022-09-30T04:04:52;3.00;;;2.00;;
12681;SDS011;6405;59.208;18.216;2022-09-30T04:07:19;2.70;;;1.80;;
12681;SDS011;6405;59.208;18.216;2022-09-30T04:09:46;4.27;;;1.73;;
12681;SDS011;6405;59.208;18.216;2022-09-30T04:12:13;2.13;;;1.93;;
12681;SDS011;6405;59.208;18.216;2022-09-30T04:14:40;2.40;;;2.17;;
12681;SDS011;6405;59.208;18.216;2022-09-30T04:17:06;2.60;;;2.00;;
12681;SDS011;6405;59.208;18.216;2022-09-30T04:19:33;4.23;;;1.90;;
12681;SDS011;6405;59.208;18.216;2022-09-30T04:22:02;2.47;;;1.60;;
12681;SDS011;6405;59.208;18.216;2022-09-30T04:24:29;3.37;;;2.23;;
12681;SDS011;6405;59.208;18.216;2022-09-30T04:26:55;2.33;;;1.97;;
12681;SDS011;6405;59.208;18.216;2022-09-30T04:29:22;2.20;;;1.90;;
12681;SDS011;6405;59.208;18.216;2022-09-30T04:31:48;3.00;;;1.73;;
12681;SDS011;6405;59.208;18.216;2022-09-30T04:34:14;2.00;;;1.70;;
12681;SDS011;6405;59.208;18.216;2022-09-30T04:36:42;2.13;;;1.90;;
12681;SDS011;6405;59.208;18.216;2022-09-30T04:39:09;4.70;;;2.03;;
12681;SDS011;6405;59.208;18.216;2022-09-30T04:41:36;2.30;;;1.90;;
12681;SDS011;6405;59.208;18.216;2022-09-30T04:44:03;2.00;;;1.77;;
12681;SDS011;6405;59.208;18.216;2022-09-30T04:46:32;3.07;;;2.00;;
12681;SDS011;6405;59.208;18.216;2022-09-30T04:49:02;5.23;;;2.30;;
12681;SDS011;6405;59.208;18.216;2022-09-30T04:51:29;2.87;;;2.20;;
12681;SDS011;6405;59.208;18.216;2022-09-30T04:53:55;3.83;;;2.57;;
12681;SDS011;6405;59.208;18.216;2022-09-30T04:56:23;3.93;;;2.00;;
12681;SDS011;6405;59.208;18.216;2022-09-30T04:58:51;9.03;;;2.20;;
12681;SDS011;6405;59.208;18.216;2022-09-30T05:01:19;2.80;;;2.00;;
12681;SDS011;6405;59.208;18.216;2022-09-30T05:03:46;3.87;;;2.00;;
12681;SDS011;6405;59.208;18.216;2022-09-30T05:06:13;4.80;;;1.90;;
12681;SDS011;6405;59.208;18.216;2022-09-30T05:08:41;3.50;;;2.50;;
12681;SDS011;6405;59.208;18.216;2022-09-30T05:11:21;3.77;;;1.83;;
12681;SDS011;6405;59.208;18.216;2022-09-30T05:13:47;2.70;;;2.10;;
12681;SDS011;6405;59.208;18.216;2022-09-30T05:16:15;3.77;;;2.10;;
12681;SDS011;6405;59.208;18.216;2022-09-30T05:18:43;3.10;;;2.47;;
12681;SDS011;6405;59.208;18.216;2022-09-30T05:21:12;2.97;;;2.20;;
12681;SDS011;6405;59.208;18.216;2022-09-30T05:23:40;2.30;;;1.90;;
12681;SDS011;6405;59.208;18.216;2022-09-30T05:26:07;3.47;;;2.20;;
12681;SDS011;6405;59.208;18.216;2022-09-30T05:28:34;5.23;;;2.20;;
12681;SDS011;6405;59.208;18.216;2022-09-30T05:31:01;3.30;;;2.00;;
12681;SDS011;6405;59.208;18.216;2022-09-30T05:33:31;3.60;;;2.20;;
12681;SDS011;6405;59.208;18.216;2022-09-30T05:36:02;3.20;;;2.50;;
12681;SDS011;6405;59.208;18.216;2022-09-30T05:38:31;2.27;;;1.90;;
12681;SDS011;6405;59.208;18.216;2022-09-30T05:41:03;3.93;;;2.03;;
12681;SDS011;6405;59.208;18.216;2022-09-30T05:43:32;2.60;;;2.20;;
12681;SDS011;6405;59.208;18.216;2022-09-30T05:46:00;2.57;;;2.03;;
12681;SDS011;6405;59.208;18.216;2022-09-30T05:48:25;2.90;;;2.27;;
12681;SDS011;6405;59.208;18.216;2022-09-30T05:50:55;2.77;;;2.17;;
12681;SDS011;6405;59.208;18.216;2022-09-30T05:53:23;5.40;;;1.97;;
12681;SDS011;6405;59.208;18.216;2022-09-30T05:55:49;3.10;;;1.60;;
12681;SDS011;6405;59.208;18.216;2022-09-30T05:58:17;5.27;;;2.40;;
12681;SDS011;6405;59.208;18.216;2022-09-30T06:00:45;2.43;;;2.07;;
12681;SDS011;6405;59.208;18.216;2022-09-30T06:03:14;4.00;;;2.10;;
12681;SDS011;6405;59.208;18.216;2022-09-30T06:05:42;2.50;;;1.93;;
12681;SDS011;6405;59.208;18.216;2022-09-30T06:08:11;2.73;;;2.23;;
12681;SDS011;6405;59.208;18.216;2022-09-30T06:10:39;3.47;;;1.70;;
12681;SDS011;6405;59.208;18.216;2022-09-30T06:13:06;4.90;;;2.47;;
12681;SDS011;6405;59.208;18.216;2022-09-30T06:15:34;3.67;;;1.90;;
12681;SDS011;6405;59.208;18.216;2022-09-30T06:18:05;2.60;;;2.10;;
12681;SDS011;6405;59.208;18.216;2022-09-30T06:20:33;3.17;;;2.50;;
12681;SDS011;6405;59.208;18.216;2022-09-30T06:22:59;2.70;;;1.90;;
12681;SDS011;6405;59.208;18.216;2022-09-30T06:25:29;2.70;;;2.10;;
12681;SDS011;6405;59.208;18.216;2022-09-30T06:27:55;2.90;;;1.90;;
12681;SDS011;6405;59.208;18.216;2022-09-30T06:30:22;2.90;;;2.20;;
12681;SDS011;6405;59.208;18.216;2022-09-30T06:32:48;3.60;;;1.83;;
12681;SDS011;6405;59.208;18.216;2022-09-30T06:35:14;2.50;;;2.00;;
12681;SDS011;6405;59.208;18.216;2022-09-30T06:37:43;2.50;;;2.13;;
12681;SDS011;6405;59.208;18.216;2022-09-30T06:40:09;2.83;;;2.30;;
12681;SDS011;6405;59.208;18.216;2022-09-30T06:42:35;6.47;;;2.20;;
12681;SDS011;6405;59.208;18.216;2022-09-30T06:45:02;2.50;;;2.30;;
12681;SDS011;6405;59.208;18.216;2022-09-30T06:47:29;2.70;;;2.30;;
12681;SDS011;6405;59.208;18.216;2022-09-30T06:49:57;3.57;;;2.50;;
12681;SDS011;6405;59.208;18.216;2022-09-30T06:52:25;2.60;;;1.90;;
12681;SDS011;6405;59.208;18.216;2022-09-30T06:54:52;3.70;;;2.20;;
12681;SDS011;6405;59.208;18.216;2022-09-30T06:57:21;4.50;;;2.40;;
12681;SDS011;6405;59.208;18.216;2022-09-30T06:59:49;2.97;;;2.00;;
12681;SDS011;6405;59.208;18.216;2022-09-30T07:02:18;4.50;;;1.97;;
12681;SDS011;6405;59.208;18.216;2022-09-30T07:04:45;3.43;;;2.30;;
12681;SDS011;6405;59.208;18.216;2022-09-30T07:07:13;3.50;;;2.20;;
12681;SDS011;6405;59.208;18.216;2022-09-30T07:09:40;5.73;;;2.53;;
12681;SDS011;6405;59.208;18.216;2022-09-30T07:12:09;4.07;;;2.20;;
12681;SDS011;6405;59.208;18.216;2022-09-30T07:14:36;3.07;;;2.40;;
12681;SDS011;6405;59.208;18.216;2022-09-30T07:17:04;3.47;;;2.50;;
12681;SDS011;6405;59.208;18.216;2022-09-30T07:19:30;2.30;;;2.10;;
12681;SDS011;6405;59.208;18.216;2022-09-30T07:21:59;3.10;;;2.47;;
12681;SDS011;6405;59.208;18.216;2022-09-30T07:24:46;3.20;;;2.40;;
12681;SDS011;6405;59.208;18.216;2022-09-30T07:27:13;7.83;;;2.90;;
12681;SDS011;6405;59.208;18.216;2022-09-30T07:29:40;2.50;;;2.20;;
12681;SDS011;6405;59.208;18.216;2022-09-30T07:32:09;4.13;;;2.50;;
12681;SDS011;6405;59.208;18.216;2022-09-30T07:34:37;3.37;;;2.30;;
12681;SDS011;6405;59.208;18.216;2022-09-30T07:37:08;4.70;;;2.37;;
12681;SDS011;6405;59.208;18.216;2022-09-30T07:39:37;2.73;;;2.00;;
12681;SDS011;6405;59.208;18.216;2022-09-30T07:42:03;5.00;;;2.17;;
12681;SDS011;6405;59.208;18.216;2022-09-30T07:44:31;2.77;;;2.27;;
12681;SDS011;6405;59.208;18.216;2022-09-30T07:46:59;2.00;;;1.80;;
12681;SDS011;6405;59.208;18.216;2022-09-30T07:49:26;4.17;;;2.33;;
12681;SDS011;6405;59.208;18.216;2022-09-30T07:51:54;3.90;;;2.30;;
12681;SDS011;6405;59.208;18.216;2022-09-30T07:54:24;3.33;;;2.40;;
12681;SDS011;6405;59.208;18.216;2022-09-30T07:56:53;3.40;;;2.33;;
12681;SDS011;6405;59.208;18.216;2022-09-30T07:59:20;5.97;;;2.43;;
12681;SDS011;6405;59.208;18.216;2022-09-30T08:01:46;2.97;;;2.67;;
12681;SDS011;6405;59.208;18.216;2022-09-30T08:04:14;2.63;;;2.40;;
12681;SDS011;6405;59.208;18.216;2022-09-30T08:06:44;3.43;;;2.70;;
12681;SDS011;6405;59.208;18.216;2022-09-30T08:09:15;4.83;;;2.43;;
12681;SDS011;6405;59.208;18.216;2022-09-30T08:11:47;3.20;;;2.47;;
12681;SDS011;6405;59.208;18.216;2022-09-30T08:14:15;2.80;;;2.30;;
12681;SDS011;6405;59.208;18.216;2022-09-30T08:16:41;3.03;;;2.23;;
12681;SDS011;6405;59.208;18.216;2022-09-30T08:19:08;3.47;;;2.37;;
12681;SDS011;6405;59.208;18.216;2022-09-30T08:21:38;3.03;;;2.50;;
12681;SDS011;6405;59.208;18.216;2022-09-30T08:24:05;5.40;;;2.63;;
12681;SDS011;6405;59.208;18.216;2022-09-30T08:26:33;2.70;;;2.50;;
12681;SDS011;6405;59.208;18.216;2022-09-30T08:29:01;2.87;;;2.50;;
12681;SDS011;6405;59.208;18.216;2022-09-30T08:31:26;2.33;;;2.07;;
12681;SDS011;6405;59.208;18.216;2022-09-30T08:33:54;3.67;;;2.20;;
12681;SDS011;6405;59.208;18.216;2022-09-30T08:36:23;2.97;;;2.30;;
12681;SDS011;6405;59.208;18.216;2022-09-30T08:38:51;5.00;;;2.40;;
12681;SDS011;6405;59.208;18.216;2022-09-30T08:50:04;3.50;;;1.87;;
12681;SDS011;6405;59.208;18.216;2022-09-30T08:52:50;3.80;;;1.80;;
12681;SDS011;6405;59.208;18.216;2022-09-30T08:55:30;2.13;;;1.90;;
12681;SDS011;6405;59.208;18.216;2022-09-30T08:58:14;2.53;;;2.33;;
12681;SDS011;6405;59.208;18.216;2022-09-30T09:00:45;3.73;;;2.00;;
12681;SDS011;6405;59.208;18.216;2022-09-30T09:03:14;2.40;;;2.07;;
12681;SDS011;6405;59.208;18.216;2022-09-30T09:11:21;4.93;;;2.37;;
12681;SDS011;6405;59.208;18.216;2022-09-30T09:14:28;2.00;;;1.80;;
12681;SDS011;6405;59.208;18.216;2022-09-30T09:22:41;2.77;;;2.33;;
12681;SDS011;6405;59.208;18.216;2022-09-30T09:25:12;2.90;;;1.73;;
12681;SDS011;6405;59.208;18.216;2022-09-30T09:27:54;2.10;;;1.80;;
12681;SDS011;6405;59.208;18.216;2022-09-30T09:30:34;3.23;;;2.10;;
12681;SDS011;6405;59.208;18.216;2022-09-30T09:33:17;2.30;;;1.90;;
12681;SDS011;6405;59.208;18.216;2022-09-30T09:36:35;3.50;;;2.50;;
12681;SDS011;6405;59.208;18.216;2022-09-30T09:45:03;2.27;;;1.80;;
12681;SDS011;6405;59.208;18.216;2022-09-30T09:47:41;5.97;;;2.03;;
12681;SDS011;6405;59.208;18.216;2022-09-30T09:50:13;1.80;;;1.70;;
12681;SDS011;6405;59.208;18.216;2022-09-30T09:53:31;1.40;;;1.30;;
12681;SDS011;6405;59.208;18.216;2022-09-30T09:55:59;2.47;;;1.60;;
12681;SDS011;6405;59.208;18.216;2022-09-30T09:58:29;1.80;;;1.63;;
12681;SDS011;6405;59.208;18.216;2022-09-30T10:01:31;1.63;;;1.53;;
12681;SDS011;6405;59.208;18.216;2022-09-30T10:04:06;3.10;;;1.80;;
12681;SDS011;6405;59.208;18.216;2022-09-30T10:06:56;1.60;;;1.50;;
12681;SDS011;6405;59.208;18.216;2022-09-30T10:09:34;1.53;;;1.40;;
12681;SDS011;6405;59.208;18.216;2022-09-30T10:14:40;1.70;;;1.60;;
12681;SDS011;6405;59.208;18.216;2022-09-30T10:19:48;1.73;;;1.50;;
12681;SDS011;6405;59.208;18.216;2022-09-30T10:22:17;3.70;;;1.60;;
12681;SDS011;6405;59.208;18.216;2022-09-30T10:24:49;1.57;;;1.47;;
12681;SDS011;6405;59.208;18.216;2022-09-30T10:27:26;1.77;;;1.40;;
12681;SDS011;6405;59.208;18.216;2022-09-30T10:29:55;2.40;;;1.53;;
12681;SDS011;6405;59.208;18.216;2022-09-30T10:32:22;1.50;;;1.40;;
12681;SDS011;6405;59.208;18.216;2022-09-30T10:34:54;2.37;;;1.80;;
12681;SDS011;6405;59.208;18.216;2022-09-30T10:37:28;1.80;;;1.30;;
12681;SDS011;6405;59.208;18.216;2022-09-30T10:39:58;3.47;;;1.60;;
12681;SDS011;6405;59.208;18.216;2022-09-30T10:42:32;1.50;;;1.33;;
12681;SDS011;6405;59.208;18.216;2022-09-30T10:45:03;1.80;;;1.50;;
12681;SDS011;6405;59.208;18.216;2022-09-30T10:47:36;1.50;;;1.40;;
12681;SDS011;6405;59.208;18.216;2022-09-30T10:50:13;2.07;;;1.60;;
12681;SDS011;6405;59.208;18.216;2022-09-30T10:52:47;2.87;;;1.50;;
12681;SDS011;6405;59.208;18.216;2022-09-30T10:55:34;1.40;;;1.30;;
12681;SDS011;6405;59.208;18.216;2022-09-30T10:58:24;3.23;;;1.87;;
12681;SDS011;6405;59.208;18.216;2022-09-30T11:01:00;4.53;;;1.73;;
12681;SDS011;6405;59.208;18.216;2022-09-30T11:03:38;4.10;;;1.50;;
12681;SDS011;6405;59.208;18.216;2022-09-30T11:06:14;2.83;;;1.20;;
12681;SDS011;6405;59.208;18.216;2022-09-30T11:08:52;3.67;;;1.57;;
12681;SDS011;6405;59.208;18.216;2022-09-30T11:11:34;1.50;;;1.40;;
12681;SDS011;6405;59.208;18.216;2022-09-30T11:14:31;1.73;;;1.37;;
12681;SDS011;6405;59.208;18.216;2022-09-30T11:17:09;1.30;;;1.20;;
12681;SDS011;6405;59.208;18.216;2022-09-30T11:25:22;2.70;;;1.20;;
12681;SDS011;6405;59.208;18.216;2022-09-30T11:42:16;1.60;;;1.47;;
12681;SDS011;6405;59.208;18.216;2022-09-30T11:45:24;1.30;;;1.20;;
12681;SDS011;6405;59.208;18.216;2022-09-30T11:56:05;1.30;;;1.20;;
12681;SDS011;6405;59.208;18.216;2022-09-30T11:58:56;2.80;;;1.10;;
12681;SDS011;6405;59.208;18.216;2022-09-30T12:01:33;1.77;;;1.17;;
12681;SDS011;6405;59.208;18.216;2022-09-30T12:04:13;1.27;;;1.17;;
12681;SDS011;6405;59.208;18.216;2022-09-30T12:07:00;1.60;;;1.50;;
12681;SDS011;6405;59.208;18.216;2022-09-30T12:09:37;1.20;;;1.10;;
12681;SDS011;6405;59.208;18.216;2022-09-30T12:12:11;1.33;;;1.13;;
12681;SDS011;6405;59.208;18.216;2022-09-30T12:14:55;1.60;;;1.20;;
12681;SDS011;6405;59.208;18.216;2022-09-30T12:17:42;1.20;;;1.10;;
12681;SDS011;6405;59.208;18.216;2022-09-30T12:22:49;2.17;;;1.30;;
12681;SDS011;6405;59.208;18.216;2022-09-30T12:25:22;2.00;;;1.40;;
12681;SDS011;6405;59.208;18.216;2022-09-30T12:27:54;3.10;;;1.70;;
12681;SDS011;6405;59.208;18.216;2022-09-30T12:30:48;1.37;;;1.20;;
12681;SDS011;6405;59.208;18.216;2022-09-30T12:41:41;2.50;;;1.50;;
12681;SDS011;6405;59.208;18.216;2022-09-30T12:50:04;4.40;;;1.67;;
12681;SDS011;6405;59.208;18.216;2022-09-30T12:52:35;1.30;;;1.20;;
12681;SDS011;6405;59.208;18.216;2022-09-30T12:57:42;3.17;;;1.40;;
12681;SDS011;6405;59.208;18.216;2022-09-30T13:00:15;2.20;;;1.20;;
12681;SDS011;6405;59.208;18.216;2022-09-30T13:02:45;4.10;;;2.10;;
12681;SDS011;6405;59.208;18.216;2022-09-30T13:05:30;4.13;;;1.70;;
12681;SDS011;6405;59.208;18.216;2022-09-30T13:10:46;1.63;;;1.37;;
12681;SDS011;6405;59.208;18.216;2022-09-30T13:15:53;2.30;;;1.70;;
12681;SDS011;6405;59.208;18.216;2022-09-30T13:23:35;2.07;;;1.27;;
12681;SDS011;6405;59.208;18.216;2022-09-30T13:26:04;1.30;;;1.20;;
12681;SDS011;6405;59.208;18.216;2022-09-30T13:28:49;1.40;;;1.23;;
12681;SDS011;6405;59.208;18.216;2022-09-30T13:31:17;2.53;;;1.47;;
12681;SDS011;6405;59.208;18.216;2022-09-30T13:33:46;1.53;;;1.43;;
12681;SDS011;6405;59.208;18.216;2022-09-30T13:36:17;1.30;;;1.17;;
12681;SDS011;6405;59.208;18.216;2022-09-30T13:41:47;1.20;;;1.10;;
12681;SDS011;6405;59.208;18.216;2022-09-30T13:47:24;1.70;;;1.10;;
12681;SDS011;6405;59.208;18.216;2022-09-30T13:50:11;2.13;;;1.30;;
12681;SDS011;6405;59.208;18.216;2022-09-30T13:52:40;1.30;;;1.20;;
12681;SDS011;6405;59.208;18.216;2022-09-30T13:55:20;1.10;;;1.00;;
12681;SDS011;6405;59.208;18.216;2022-09-30T14:00:45;1.83;;;1.00;;
12681;SDS011;6405;59.208;18.216;2022-09-30T14:06:16;2.10;;;1.27;;
12681;SDS011;6405;59.208;18.216;2022-09-30T14:11:54;3.60;;;3.27;;
12681;SDS011;6405;59.208;18.216;2022-09-30T14:20:45;1.50;;;1.40;;
12681;SDS011;6405;59.208;18.216;2022-09-30T14:23:27;2.47;;;1.43;;
12681;SDS011;6405;59.208;18.216;2022-09-30T14:28:52;1.90;;;1.27;;
12681;SDS011;6405;59.208;18.216;2022-09-30T14:31:31;5.70;;;1.20;;
12681;SDS011;6405;59.208;18.216;2022-09-30T14:33:59;1.57;;;1.20;;
12681;SDS011;6405;59.208;18.216;2022-09-30T14:36:26;1.47;;;1.30;;
12681;SDS011;6405;59.208;18.216;2022-09-30T14:38:55;3.23;;;1.73;;
12681;SDS011;6405;59.208;18.216;2022-09-30T14:41:26;2.63;;;1.60;;
12681;SDS011;6405;59.208;18.216;2022-09-30T14:43:57;2.83;;;1.10;;
12681;SDS011;6405;59.208;18.216;2022-09-30T14:49:01;1.07;;;0.97;;
12681;SDS011;6405;59.208;18.216;2022-09-30T14:51:39;1.17;;;1.00;;
12681;SDS011;6405;59.208;18.216;2022-09-30T14:54:18;1.63;;;1.07;;
12681;SDS011;6405;59.208;18.216;2022-09-30T14:56:50;1.33;;;1.23;;
12681;SDS011;6405;59.208;18.216;2022-09-30T14:59:23;1.27;;;1.17;;
12681;SDS011;6405;59.208;18.216;2022-09-30T15:01:53;2.00;;;1.20;;
12681;SDS011;6405;59.208;18.216;2022-09-30T15:04:28;1.30;;;1.20;;
12681;SDS011;6405;59.208;18.216;2022-09-30T15:07:07;2.60;;;1.17;;
12681;SDS011;6405;59.208;18.216;2022-09-30T15:09:39;1.40;;;1.27;;
12681;SDS011;6405;59.208;18.216;2022-09-30T15:12:10;1.40;;;1.17;;
12681;SDS011;6405;59.208;18.216;2022-09-30T15:17:20;2.00;;;1.70;;
12681;SDS011;6405;59.208;18.216;2022-09-30T15:19:54;2.43;;;1.23;;
12681;SDS011;6405;59.208;18.216;2022-09-30T15:22:23;1.50;;;1.10;;
12681;SDS011;6405;59.208;18.216;2022-09-30T15:24:52;3.27;;;1.20;;
12681;SDS011;6405;59.208;18.216;2022-09-30T15:27:21;1.63;;;1.53;;
12681;SDS011;6405;59.208;18.216;2022-09-30T15:29:52;3.10;;;1.30;;
12681;SDS011;6405;59.208;18.216;2022-09-30T15:32:39;1.33;;;0.97;;
12681;SDS011;6405;59.208;18.216;2022-09-30T15:35:13;1.57;;;1.10;;
12681;SDS011;6405;59.208;18.216;2022-09-30T15:37:43;1.00;;;0.90;;
12681;SDS011;6405;59.208;18.216;2022-09-30T15:40:12;2.73;;;1.30;;
12681;SDS011;6405;59.208;18.216;2022-09-30T15:43:09;3.50;;;1.20;;
12681;SDS011;6405;59.208;18.216;2022-09-30T15:45:41;1.67;;;1.20;;
12681;SDS011;6405;59.208;18.216;2022-09-30T15:50:55;2.93;;;1.47;;
12681;SDS011;6405;59.208;18.216;2022-09-30T15:58:54;1.53;;;1.23;;
12681;SDS011;6405;59.208;18.216;2022-09-30T16:06:45;1.87;;;1.50;;
12681;SDS011;6405;59.208;18.216;2022-09-30T16:09:22;2.93;;;1.63;;
12681;SDS011;6405;59.208;18.216;2022-09-30T16:17:47;3.27;;;1.50;;
12681;SDS011;6405;59.208;18.216;2022-09-30T16:27:47;4.47;;;2.13;;
12681;SDS011;6405;59.208;18.216;2022-09-30T16:30:19;2.43;;;2.17;;
12681;SDS011;6405;59.208;18.216;2022-09-30T16:32:48;3.40;;;2.30;;
12681;SDS011;6405;59.208;18.216;2022-09-30T16:35:19;4.53;;;2.60;;
12681;SDS011;6405;59.208;18.216;2022-09-30T16:37:49;4.20;;;2.43;;
12681;SDS011;6405;59.208;18.216;2022-09-30T16:40:24;5.20;;;2.50;;
12681;SDS011;6405;59.208;18.216;2022-09-30T16:42:52;3.43;;;2.43;;
12681;SDS011;6405;59.208;18.216;2022-09-30T16:45:25;5.03;;;2.20;;
12681;SDS011;6405;59.208;18.216;2022-09-30T16:47:53;6.70;;;2.27;;
12681;SDS011;6405;59.208;18.216;2022-09-30T16:50:24;3.13;;;2.17;;
12681;SDS011;6405;59.208;18.216;2022-09-30T16:52:55;4.03;;;2.00;;
12681;SDS011;6405;59.208;18.216;2022-09-30T16:55:23;4.00;;;2.17;;
12681;SDS011;6405;59.208;18.216;2022-09-30T16:57:50;5.47;;;2.60;;
12681;SDS011;6405;59.208;18.216;2022-09-30T17:00:19;3.03;;;2.47;;
12681;SDS011;6405;59.208;18.216;2022-09-30T17:02:46;3.03;;;2.50;;
12681;SDS011;6405;59.208;18.216;2022-09-30T17:05:15;4.90;;;2.90;;
12681;SDS011;6405;59.208;18.216;2022-09-30T17:07:52;4.00;;;3.20;;
12681;SDS011;6405;59.208;18.216;2022-09-30T17:10:30;3.23;;;2.80;;
12681;SDS011;6405;59.208;18.216;2022-09-30T17:12:59;4.60;;;2.97;;
12681;SDS011;6405;59.208;18.216;2022-09-30T17:15:27;5.83;;;2.87;;
12681;SDS011;6405;59.208;18.216;2022-09-30T17:17:56;5.83;;;2.87;;
12681;SDS011;6405;59.208;18.216;2022-09-30T17:20:22;4.03;;;3.10;;
12681;SDS011;6405;59.208;18.216;2022-09-30T17:22:49;4.70;;;2.67;;
12681;SDS011;6405;59.208;18.216;2022-09-30T17:25:17;5.07;;;2.90;;
12681;SDS011;6405;59.208;18.216;2022-09-30T17:27:45;3.90;;;3.30;;
12681;SDS011;6405;59.208;18.216;2022-09-30T17:30:14;4.00;;;2.60;;
12681;SDS011;6405;59.208;18.216;2022-09-30T17:32:41;3.60;;;2.97;;
12681;SDS011;6405;59.208;18.216;2022-09-30T17:35:07;4.20;;;3.17;;
12681;SDS011;6405;59.208;18.216;2022-09-30T17:37:33;3.33;;;3.03;;
12681;SDS011;6405;59.208;18.216;2022-09-30T17:40:02;6.67;;;3.57;;
12681;SDS011;6405;59.208;18.216;2022-09-30T17:42:53;6.27;;;3.20;;
12681;SDS011;6405;59.208;18.216;2022-09-30T17:45:33;4.83;;;3.40;;
12681;SDS011;6405;59.208;18.216;2022-09-30T17:48:00;3.90;;;3.40;;
12681;SDS011;6405;59.208;18.216;2022-09-30T17:50:27;4.50;;;3.57;;
12681;SDS011;6405;59.208;18.216;2022-09-30T17:52:55;7.10;;;3.80;;
12681;SDS011;6405;59.208;18.216;2022-09-30T17:55:21;4.50;;;3.53;;
12681;SDS011;6405;59.208;18.216;2022-09-30T17:57:49;6.30;;;3.87;;
12681;SDS011;6405;59.208;18.216;2022-09-30T18:00:16;11.97;;;4.60;;
12681;SDS011;6405;59.208;18.216;2022-09-30T18:02:44;6.37;;;4.13;;
12681;SDS011;6405;59.208;18.216;2022-09-30T18:05:12;5.93;;;4.90;;
12681;SDS011;6405;59.208;18.216;2022-09-30T18:07:41;8.80;;;6.23;;
12681;SDS011;6405;59.208;18.216;2022-09-30T18:10:09;8.03;;;6.50;;
12681;SDS011;6405;59.208;18.216;2022-09-30T18:12:36;8.00;;;6.33;;
12681;SDS011;6405;59.208;18.216;2022-09-30T18:15:02;15.23;;;7.53;;
12681;SDS011;6405;59.208;18.216;2022-09-30T18:17:29;10.00;;;7.93;;
12681;SDS011;6405;59.208;18.216;2022-09-30T18:19:56;13.70;;;9.60;;
12681;SDS011;6405;59.208;18.216;2022-09-30T18:22:23;13.10;;;10.13;;
12681;SDS011;6405;59.208;18.216;2022-09-30T18:24:51;12.40;;;10.03;;
12681;SDS011;6405;59.208;18.216;2022-09-30T18:27:36;12.97;;;7.37;;
12681;SDS011;6405;59.208;18.216;2022-09-30T18:30:04;7.93;;;6.63;;
12681;SDS011;6405;59.208;18.216;2022-09-30T18:32:30;10.23;;;6.53;;